Time;durP1;ratioP1;P1;durP2;ratioP2;P2;SDS_P1;SDS_P2;PMS_P1;PMS_P2;Temp;Humidity;BMP_temperature;BMP_pressure;BME280_temperature;BME280_humidity;BME280_pressure;Samples;Min_cycle;Max_cycle;Signal;HPM_P1;HPM_P2
2022/06/05 00:01:02;;;;;;;5.50;3.50;;;;;;;17.51;57.48;100772.85;106239;1270;26589;-79
2022/06/05 00:03:51;;;;;;;4.40;3.40;;;;;;;17.50;57.84;100774.85;105880;1275;25536;-78
2022/06/05 00:06:24;;;;;;;4.10;3.40;;;;;;;17.47;57.90;100771.54;105800;1274;24263;-77
2022/06/05 00:09:03;;;;;;;5.40;3.90;;;;;;;17.44;57.86;100776.27;105924;1276;22563;-79
2022/06/05 00:11:54;;;;;;;5.40;3.70;;;;;;;17.41;57.90;100779.39;105733;1278;22860;-80
2022/06/05 00:14:21;;;;;;;4.20;3.60;;;;;;;17.38;58.16;100778.79;105472;1281;24214;-81
2022/06/05 00:16:47;;;;;;;6.10;3.70;;;;;;;17.33;58.11;100781.59;105512;1281;22571;-79
2022/06/05 00:19:13;;;;;;;4.50;3.30;;;;;;;17.26;58.33;100779.33;105636;1281;22551;-81
2022/06/05 00:21:40;;;;;;;7.30;3.60;;;;;;;17.22;58.41;100780.53;105570;1281;25443;-77
2022/06/05 00:24:06;;;;;;;5.40;3.80;;;;;;;17.15;58.39;100781.79;105413;1281;25450;-78
2022/06/05 00:26:51;;;;;;;4.00;3.60;;;;;;;17.09;58.32;100783.38;105585;1281;22550;-82
2022/06/05 00:29:48;;;;;;;4.20;3.60;;;;;;;17.01;58.45;100779.52;105787;1274;22590;-78
2022/06/05 00:32:32;;;;;;;5.00;3.30;;;;;;;16.90;58.28;100782.14;106014;1270;22550;-79
2022/06/05 00:34:58;;;;;;;4.90;3.70;;;;;;;16.85;58.41;100776.95;106507;1270;24283;-77
2022/06/05 00:38:03;;;;;;;4.20;3.40;;;;;;;16.85;58.44;100779.27;106190;1270;24324;-76
2022/06/05 00:41:10;;;;;;;4.00;3.60;;;;;;;16.83;58.45;100774.15;106426;1270;22627;-75
2022/06/05 00:43:37;;;;;;;3.80;3.40;;;;;;;16.77;58.50;100768.09;106350;1270;22729;-79
2022/06/05 00:46:04;;;;;;;4.90;3.50;;;;;;;16.72;58.41;100768.79;106222;1271;22614;-83
2022/06/05 00:48:30;;;;;;;4.60;3.30;;;;;;;16.68;58.83;100770.84;106373;1270;22616;-76
2022/06/05 00:50:56;;;;;;;5.00;3.60;;;;;;;16.67;58.74;100771.77;106309;1270;22789;-77
2022/06/05 00:53:23;;;;;;;4.10;3.30;;;;;;;16.66;58.77;100773.58;106521;1268;25304;-76
2022/06/05 00:55:52;;;;;;;4.30;3.60;;;;;;;16.66;58.67;100767.90;106205;1269;24227;-79
2022/06/05 00:58:20;;;;;;;4.70;3.70;;;;;;;16.63;58.77;100765.84;106385;1270;22687;-79
2022/06/05 01:00:52;;;;;;;3.50;3.10;;;;;;;16.59;58.63;100764.36;106560;1270;22550;-76
2022/06/05 01:03:20;;;;;;;3.40;3.00;;;;;;;16.56;58.51;100767.09;106282;1270;22619;-77
2022/06/05 01:05:47;;;;;;;3.90;3.40;;;;;;;16.51;58.42;100764.75;106513;1270;25244;-77
2022/06/05 01:08:15;;;;;;;4.70;3.60;;;;;;;16.48;58.14;100762.70;106357;1270;22538;-79
2022/06/05 01:10:48;;;;;;;4.10;3.30;;;;;;;16.44;58.07;100758.54;106194;1270;24286;-80
2022/06/05 01:13:45;;;;;;;7.00;3.00;;;;;;;16.42;58.07;100760.89;106492;1269;24444;-77
2022/06/05 01:16:39;;;;;;;4.10;3.30;;;;;;;16.39;57.97;100761.16;106256;1270;23096;-78
2022/06/05 01:19:27;;;;;;;4.70;3.20;;;;;;;16.34;57.78;100763.60;106523;1271;25206;-80
2022/06/05 01:22:30;;;;;;;4.50;3.40;;;;;;;16.30;57.54;100762.48;106552;1270;22865;-77
2022/06/05 01:25:33;;;;;;;4.00;3.40;;;;;;;16.26;57.69;100759.04;106420;1270;22623;-76
2022/06/05 01:28:08;;;;;;;3.80;3.40;;;;;;;16.23;57.47;100753.24;106909;1270;24259;-77
2022/06/05 01:30:44;;;;;;;4.20;3.20;;;;;;;16.19;57.55;100753.86;106398;1270;25203;-77
2022/06/05 01:33:19;;;;;;;3.80;3.10;;;;;;;16.18;57.49;100752.67;106910;1270;22559;-78
2022/06/05 01:36:05;;;;;;;6.20;3.00;;;;;;;16.14;57.29;100749.41;107289;1270;22614;-77
2022/06/05 01:38:43;;;;;;;3.40;3.10;;;;;;;16.09;57.47;100757.67;107900;1271;22493;-79
2022/06/05 01:41:25;;;;;;;3.90;3.40;;;;;;;16.08;57.48;100757.71;108056;1270;22481;-79
2022/06/05 01:43:56;;;;;;;3.30;3.00;;;;;;;16.06;57.51;100767.19;108802;1270;22539;-84
2022/06/05 01:46:34;;;;;;;3.40;3.00;;;;;;;16.05;57.36;100773.08;109288;1268;22533;-78
2022/06/05 01:49:22;;;;;;;3.90;3.10;;;;;;;16.04;57.37;100784.12;109102;1269;25609;-77
2022/06/05 01:51:58;;;;;;;3.30;3.00;;;;;;;16.00;57.43;100781.71;108967;1270;22470;-78
2022/06/05 01:54:42;;;;;;;4.10;2.80;;;;;;;15.96;57.73;100784.98;108969;1270;22534;-77
2022/06/05 01:57:11;;;;;;;6.70;3.50;;;;;;;15.92;57.72;100786.68;108922;1269;22538;-82
2022/06/05 01:59:52;;;;;;;3.50;3.20;;;;;;;15.92;57.74;100792.91;109248;1269;22594;-78
2022/06/05 02:02:29;;;;;;;5.70;3.50;;;;;;;15.89;57.81;100790.67;109186;1271;22604;-78
2022/06/05 02:05:03;;;;;;;5.90;3.30;;;;;;;15.87;57.94;100796.21;109349;1270;24219;-79
2022/06/05 02:07:54;;;;;;;4.50;3.40;;;;;;;15.86;57.81;100800.50;108753;1270;24224;-79
2022/06/05 02:10:30;;;;;;;5.40;3.40;;;;;;;15.85;57.60;100801.78;108296;1270;22917;-80
2022/06/05 02:12:58;;;;;;;6.10;3.60;;;;;;;15.85;57.65;100796.61;109118;1270;25395;-80
2022/06/05 02:15:26;;;;;;;4.70;2.90;;;;;;;15.87;57.65;100798.00;107178;1270;24363;-76
2022/06/05 02:17:54;;;;;;;3.80;3.20;;;;;;;15.89;57.49;100802.05;106595;1270;24311;-79
2022/06/05 02:20:21;;;;;;;4.20;3.40;;;;;;;15.89;57.48;100816.59;106622;1269;22538;-77
2022/06/05 02:22:50;;;;;;;3.70;3.40;;;;;;;15.87;57.57;100814.52;106490;1270;26517;-81
2022/06/05 02:25:20;;;;;;;4.20;3.60;;;;;;;15.81;57.17;100820.86;106075;1273;22564;-79
2022/06/05 02:27:46;;;;;;;3.70;3.10;;;;;;;15.78;57.31;100820.41;106014;1273;22567;-82
2022/06/05 02:30:15;;;;;;;3.60;3.20;;;;;;;15.76;57.41;100820.63;106151;1273;24232;-80
2022/06/05 02:33:01;;;;;;;4.40;3.50;;;;;;;15.72;57.00;100825.88;106175;1273;22922;-81
2022/06/05 02:35:27;;;;;;;;;;;;;;;15.67;56.85;100828.84;106174;1273;26606;-79
2022/06/05 02:38:05;;;;;;;3.50;3.20;;;;;;;15.64;56.87;100823.41;106067;1273;22577;-81
2022/06/05 02:40:49;;;;;;;4.90;3.10;;;;;;;15.62;56.73;100821.50;106080;1273;26622;-81
2022/06/05 02:43:23;;;;;;;3.40;3.10;;;;;;;15.63;56.60;100825.20;106182;1270;26599;-76
2022/06/05 02:45:57;;;;;;;3.40;3.10;;;;;;;15.63;56.56;100826.27;106376;1270;24280;-82
2022/06/05 02:48:48;;;;;;;4.30;3.40;;;;;;;15.57;56.24;100827.81;106248;1270;25340;-82
2022/06/05 02:51:20;;;;;;;4.20;3.10;;;;;;;15.55;56.47;100829.09;106364;1270;22705;-81
2022/06/05 02:53:58;;;;;;;4.90;3.00;;;;;;;15.53;56.32;100833.94;106383;1270;22557;-82
2022/06/05 02:56:29;;;;;;;3.50;2.80;;;;;;;15.52;56.27;100843.38;105779;1276;23922;-82
2022/06/05 02:58:57;;;;;;;3.80;3.30;;;;;;;15.52;56.23;100844.98;105781;1276;25534;-81
2022/06/05 03:04:10;;;;;;;3.40;3.20;;;;;;;15.46;56.31;100851.30;105652;1275;22736;-79
2022/06/05 03:06:39;;;;;;;4.30;3.90;;;;;;;15.39;56.40;100852.35;105875;1276;24297;-82
2022/06/05 03:09:07;;;;;;;3.90;3.50;;;;;;;15.39;56.35;100853.80;105827;1275;24255;-80
2022/06/05 03:11:39;;;;;;;3.70;3.10;;;;;;;15.38;56.33;100851.67;105377;1277;26644;-79
2022/06/05 03:14:05;;;;;;;3.50;3.20;;;;;;;15.36;56.60;100853.65;105964;1270;22715;-80
2022/06/05 03:16:34;;;;;;;3.90;3.40;;;;;;;15.33;56.47;100853.73;106306;1270;22619;-79
2022/06/05 03:19:01;;;;;;;3.90;3.50;;;;;;;15.30;56.62;100861.23;106297;1271;24353;-80
2022/06/05 03:21:35;;;;;;;3.50;3.10;;;;;;;15.28;56.86;100865.54;106099;1274;24372;-81
2022/06/05 03:24:02;;;;;;;6.90;3.70;;;;;;;15.24;56.78;100862.25;106062;1274;22597;-79
2022/06/05 03:26:29;;;;;;;6.30;3.60;;;;;;;15.23;56.85;100861.92;105966;1274;22756;-77
2022/06/05 03:28:55;;;;;;;3.90;3.50;;;;;;;15.22;57.05;100861.77;105696;1274;25344;-75
2022/06/05 03:31:22;;;;;;;4.70;3.60;;;;;;;15.23;57.07;100860.14;105962;1274;22564;-81
2022/06/05 03:33:48;;;;;;;4.10;3.70;;;;;;;15.24;56.99;100858.52;105935;1275;22544;-76
2022/06/05 03:36:17;;;;;;;4.20;3.80;;;;;;;15.24;57.20;100859.59;105798;1279;22540;-74
2022/06/05 03:38:44;;;;;;;5.10;3.80;;;;;;;15.23;57.19;100857.66;105568;1276;23007;-74
2022/06/05 03:41:14;;;;;;;4.00;3.70;;;;;;;15.23;57.31;100864.05;105822;1276;22565;-79
2022/06/05 03:43:41;;;;;;;4.50;3.90;;;;;;;15.20;57.38;100873.16;105835;1276;25267;-80
2022/06/05 03:46:11;;;;;;;4.10;3.70;;;;;;;15.18;57.57;100876.75;105954;1276;22726;-78
2022/06/05 03:48:38;;;;;;;5.50;4.00;;;;;;;15.16;57.58;100874.83;105914;1276;24235;-79
2022/06/05 03:51:10;;;;;;;5.10;4.10;;;;;;;15.12;57.64;100880.59;105880;1276;22697;-81
2022/06/05 03:53:36;;;;;;;3.60;3.30;;;;;;;15.07;57.74;100881.40;105966;1270;22574;-77
2022/06/05 03:56:08;;;;;;;4.90;4.10;;;;;;;15.03;57.78;100880.25;106436;1270;22584;-78
2022/06/05 03:58:35;;;;;;;4.30;3.90;;;;;;;14.95;57.80;100880.75;106415;1268;22757;-76
2022/06/05 04:01:02;;;;;;;5.10;3.90;;;;;;;14.94;57.91;100880.77;106373;1270;25240;-85
2022/06/05 04:03:29;;;;;;;4.60;4.20;;;;;;;14.89;57.65;100884.59;106271;1270;24216;-75
2022/06/05 04:05:55;;;;;;;5.30;4.30;;;;;;;14.79;57.98;100890.25;106775;1270;22677;-75
2022/06/05 04:08:21;;;;;;;7.30;4.60;;;;;;;14.76;58.11;100887.64;106602;1268;25495;-74
2022/06/05 04:10:48;;;;;;;5.20;4.00;;;;;;;14.71;58.06;100883.98;106388;1270;22541;-75
2022/06/05 04:13:14;;;;;;;4.60;4.10;;;;;;;14.67;58.40;100883.71;106802;1270;22577;-79
2022/06/05 04:15:41;;;;;;;5.20;4.60;;;;;;;14.69;58.43;100882.98;106010;1275;22540;-75
2022/06/05 04:18:08;;;;;;;4.40;4.00;;;;;;;14.69;58.67;100881.02;105889;1275;22732;-79
2022/06/05 04:20:38;;;;;;;4.90;4.00;;;;;;;14.70;58.74;100878.88;105293;1281;22571;-77
2022/06/05 04:23:08;;;;;;;5.50;4.10;;;;;;;14.66;58.64;100883.57;105305;1281;25406;-77
2022/06/05 04:25:34;;;;;;;5.00;4.40;;;;;;;14.60;58.93;100883.66;105571;1282;24217;-78
2022/06/05 04:28:01;;;;;;;4.60;4.20;;;;;;;14.60;58.88;100885.08;105452;1281;22565;-81
2022/06/05 04:30:27;;;;;;;6.30;4.40;;;;;;;14.57;58.96;100889.39;105643;1281;25259;-80
2022/06/05 04:32:53;;;;;;;5.70;4.80;;;;;;;14.55;58.88;100890.49;105587;1279;25458;-81
2022/06/05 04:35:19;;;;;;;5.70;4.40;;;;;;;14.53;58.83;100893.55;106182;1276;25256;-80
2022/06/05 04:37:46;;;;;;;5.10;4.40;;;;;;;14.53;58.99;100894.97;105976;1274;25668;-81
2022/06/05 04:40:12;;;;;;;4.80;4.20;;;;;;;14.55;59.02;100895.62;106528;1270;22571;-76
2022/06/05 04:42:38;;;;;;;5.20;4.70;;;;;;;14.57;59.13;100899.48;106538;1270;25248;-76
2022/06/05 04:45:05;;;;;;;5.40;4.30;;;;;;;14.55;58.83;100898.98;106208;1270;24282;-81
2022/06/05 04:47:31;;;;;;;4.80;4.10;;;;;;;14.47;58.96;100901.95;106459;1270;24296;-75
2022/06/05 04:49:58;;;;;;;4.50;4.10;;;;;;;14.37;59.09;100905.33;106574;1270;24350;-82
2022/06/05 04:52:26;;;;;;;4.80;4.40;;;;;;;14.31;59.30;100908.09;106429;1270;25377;-82
2022/06/05 04:54:53;;;;;;;4.70;4.30;;;;;;;14.31;59.32;100910.39;105986;1274;22832;-79
2022/06/05 04:57:19;;;;;;;5.20;4.00;;;;;;;14.32;59.29;100908.59;106233;1274;22540;-81
2022/06/05 04:59:45;;;;;;;5.00;4.50;;;;;;;14.39;59.37;100912.04;106239;1274;22758;-79
2022/06/05 05:02:11;;;;;;;4.60;4.20;;;;;;;14.46;59.43;100908.89;105906;1277;22584;-81
2022/06/05 05:04:38;;;;;;;4.70;4.00;;;;;;;14.52;59.10;100911.11;105847;1277;24314;-82
2022/06/05 05:07:05;;;;;;;5.50;4.00;;;;;;;14.51;59.07;100906.52;105442;1282;24241;-83
2022/06/05 05:09:31;;;;;;;5.00;3.90;;;;;;;14.57;58.95;100909.05;106157;1282;22722;-82
2022/06/05 05:11:57;;;;;;;5.00;4.50;;;;;;;14.61;58.87;100909.54;106639;1283;23091;-82
2022/06/05 05:14:24;;;;;;;4.90;4.50;;;;;;;14.63;58.82;100914.98;106692;1279;24373;-83
2022/06/05 05:16:50;;;;;;;5.30;4.70;;;;;;;14.65;58.52;100912.65;106463;1279;22833;-81
2022/06/05 05:19:17;;;;;;;4.80;4.10;;;;;;;14.67;58.61;100915.45;106123;1282;24304;-83
2022/06/05 05:21:43;;;;;;;5.50;4.00;;;;;;;14.70;58.54;100912.38;106884;1276;24236;-83
2022/06/05 05:24:09;;;;;;;3.80;3.40;;;;;;;14.69;58.23;100912.56;107014;1281;22627;-84
2022/06/05 05:26:35;;;;;;;6.90;4.10;;;;;;;14.69;58.18;100910.45;107704;1276;22560;-83
2022/06/05 05:29:05;;;;;;;4.70;4.10;;;;;;;14.72;58.20;100908.98;107532;1275;23023;-82
2022/06/05 05:31:35;;;;;;;7.50;4.50;;;;;;;14.78;58.01;100908.89;106918;1274;22555;-80
2022/06/05 05:34:01;;;;;;;4.60;4.10;;;;;;;14.82;57.76;100907.93;106388;1275;22714;-79
2022/06/05 05:36:28;;;;;;;5.20;4.30;;;;;;;14.87;57.76;100904.66;105507;1281;25384;-81
2022/06/05 05:44:35;;;;;;;5.60;4.50;;;;;;;15.05;57.93;100904.84;105748;1281;25387;-81
2022/06/05 05:47:03;;;;;;;6.10;4.50;;;;;;;15.12;57.98;100910.93;105531;1281;22718;-79
2022/06/05 05:49:30;;;;;;;7.20;4.90;;;;;;;15.13;57.81;100911.44;105353;1281;25341;-79
2022/06/05 05:51:56;;;;;;;6.40;4.80;;;;;;;15.16;57.93;100906.59;104914;1287;22868;-80
2022/06/05 05:54:23;;;;;;;5.60;4.10;;;;;;;15.23;57.78;100908.40;104965;1284;22595;-82
2022/06/05 05:56:51;;;;;;;5.50;3.90;;;;;;;15.27;57.85;100906.91;105080;1284;26165;-81
2022/06/05 05:59:19;;;;;;;5.10;4.50;;;;;;;15.28;57.85;100909.00;105315;1281;22605;-80
2022/06/05 06:01:46;;;;;;;6.30;4.10;;;;;;;15.30;57.65;100910.92;105265;1281;25504;-81
2022/06/05 06:04:12;;;;;;;4.00;3.60;;;;;;;15.28;57.54;100908.65;105383;1281;24393;-79
2022/06/05 06:06:42;;;;;;;6.30;4.60;;;;;;;15.35;57.59;100911.52;105369;1281;26873;-81
2022/06/05 06:09:10;;;;;;;4.40;4.00;;;;;;;15.39;57.39;100912.89;105406;1278;23927;-82
2022/06/05 06:11:37;;;;;;;4.40;4.00;;;;;;;15.42;57.45;100914.59;106342;1270;26685;-82
2022/06/05 06:14:04;;;;;;;6.60;4.30;;;;;;;15.44;57.54;100914.35;106473;1270;24233;-79
2022/06/05 06:16:30;;;;;;;5.00;3.70;;;;;;;15.46;57.41;100912.20;106544;1270;22565;-79
2022/06/05 06:18:57;;;;;;;5.90;3.90;;;;;;;15.49;57.53;100912.30;106137;1270;22554;-79
2022/06/05 06:21:24;;;;;;;4.10;3.80;;;;;;;15.47;57.41;100913.23;106452;1270;22560;-83
2022/06/05 06:23:56;;;;;;;5.50;4.90;;;;;;;15.52;57.33;100912.61;106133;1270;25356;-84
2022/06/05 06:26:22;;;;;;;5.30;4.30;;;;;;;15.57;57.37;100915.86;106309;1270;25306;-83
2022/06/05 06:28:49;;;;;;;6.10;3.80;;;;;;;15.61;57.43;100912.21;106467;1270;22540;-83
2022/06/05 06:31:17;;;;;;;4.30;3.90;;;;;;;15.72;57.29;100913.41;106504;1270;23512;-82
2022/06/05 06:33:48;;;;;;;12.00;9.30;;;;;;;15.78;57.17;100909.54;106210;1270;22537;-79
2022/06/05 06:36:16;;;;;;;6.60;4.30;;;;;;;15.84;57.14;100910.66;106048;1270;24396;-80
2022/06/05 06:39:03;;;;;;;6.20;4.30;;;;;;;15.90;56.90;100908.95;106209;1270;25410;-81
2022/06/05 06:41:29;;;;;;;4.80;4.20;;;;;;;15.97;56.87;100914.64;106202;1270;22639;-78
2022/06/05 06:43:56;;;;;;;5.80;4.50;;;;;;;16.05;56.89;100914.30;105861;1274;23966;-79
2022/06/05 06:46:23;;;;;;;4.80;4.30;;;;;;;16.11;56.62;100916.11;106161;1273;22535;-81
2022/06/05 06:48:49;;;;;;;6.80;4.30;;;;;;;16.17;56.67;100915.63;105848;1273;25362;-83
2022/06/05 06:51:16;;;;;;;6.50;4.60;;;;;;;16.23;56.55;100916.36;106066;1273;22537;-84
2022/06/05 06:53:43;;;;;;;4.90;4.30;;;;;;;16.29;56.45;100914.61;105979;1273;24285;-81
2022/06/05 06:56:18;;;;;;;5.00;4.10;;;;;;;16.35;56.47;100910.38;106012;1273;22542;-79
2022/06/05 06:58:52;;;;;;;4.80;3.90;;;;;;;16.43;56.61;100912.14;105985;1274;25744;-80
2022/06/05 07:01:18;;;;;;;5.60;4.30;;;;;;;16.51;56.37;100909.25;106168;1270;22904;-80
2022/06/05 07:03:44;;;;;;;4.70;4.20;;;;;;;16.56;55.90;100913.92;106269;1270;22543;-81
2022/06/05 07:06:14;;;;;;;4.50;4.00;;;;;;;16.64;55.94;100914.27;106209;1270;22561;-82
2022/06/05 07:08:43;;;;;;;5.20;4.30;;;;;;;16.71;55.98;100908.59;106294;1270;25474;-81
2022/06/05 07:11:12;;;;;;;5.90;4.00;;;;;;;16.79;55.95;100906.56;106452;1270;25602;-79
2022/06/05 07:13:46;;;;;;;4.40;3.70;;;;;;;16.87;55.81;100904.41;106538;1270;22788;-79
2022/06/05 07:16:12;;;;;;;6.40;3.80;;;;;;;16.94;55.82;100897.48;106341;1270;25561;-81
2022/06/05 07:18:39;;;;;;;5.60;4.50;;;;;;;16.99;55.79;100892.73;106631;1271;22594;-80
2022/06/05 07:21:12;;;;;;;4.60;3.80;;;;;;;17.08;55.74;100890.15;105834;1275;24262;-79
2022/06/05 07:23:39;;;;;;;4.30;3.90;;;;;;;17.17;55.45;100890.11;105829;1276;25561;-80
2022/06/05 07:26:09;;;;;;;4.90;4.20;;;;;;;17.23;55.27;100888.85;105787;1276;25573;-81
2022/06/05 07:28:37;;;;;;;3.70;3.40;;;;;;;17.32;54.97;100888.95;106135;1276;25393;-79
2022/06/05 07:31:05;;;;;;;5.60;3.60;;;;;;;17.40;54.41;100885.36;105775;1276;22642;-80
2022/06/05 07:33:35;;;;;;;6.10;3.60;;;;;;;17.47;54.09;100885.50;105977;1276;23407;-82
2022/06/05 07:36:13;;;;;;;3.80;3.30;;;;;;;17.56;53.86;100887.55;105792;1276;25250;-82
2022/06/05 07:38:41;;;;;;;4.20;3.60;;;;;;;17.64;53.46;100888.39;105915;1270;22548;-83
2022/06/05 07:41:17;;;;;;;4.90;3.10;;;;;;;17.68;52.95;100890.91;106371;1270;24231;-82
2022/06/05 07:43:45;;;;;;;3.60;3.30;;;;;;;17.73;52.72;100888.80;105966;1275;24229;-79
2022/06/05 07:46:12;;;;;;;4.30;3.50;;;;;;;17.80;52.57;100888.42;105871;1275;22594;-81
2022/06/05 07:48:41;;;;;;;4.20;3.60;;;;;;;17.89;52.74;100887.61;106058;1276;24506;-78
2022/06/05 07:56:46;;;;;;;4.20;3.10;;;;;;;18.31;51.59;100891.80;106140;1274;22752;-80
2022/06/05 07:59:12;;;;;;;4.40;3.30;;;;;;;18.42;51.58;100886.45;105839;1274;22768;-81
2022/06/05 08:02:03;;;;;;;3.30;3.00;;;;;;;18.56;51.44;100890.61;105952;1270;22741;-82
2022/06/05 08:04:32;;;;;;;3.70;3.00;;;;;;;18.68;51.06;100894.11;106372;1270;22805;-83
2022/06/05 08:06:59;;;;;;;4.90;3.50;;;;;;;18.80;50.83;100891.56;106232;1270;24406;-83
2022/06/05 08:09:27;;;;;;;4.80;3.50;;;;;;;18.89;50.64;100890.36;106238;1270;22634;-81
2022/06/05 08:11:53;;;;;;;4.20;3.40;;;;;;;19.00;50.66;100888.34;106132;1270;24314;-81
2022/06/05 08:14:21;;;;;;;4.20;3.20;;;;;;;19.14;50.67;100886.25;106354;1270;22560;-82
2022/06/05 08:16:48;;;;;;;4.20;3.40;;;;;;;19.23;50.28;100885.23;106221;1270;22563;-80
2022/06/05 08:19:19;;;;;;;5.10;3.90;;;;;;;19.31;50.13;100879.91;106074;1270;25238;-81
2022/06/05 08:21:47;;;;;;;5.00;3.30;;;;;;;19.46;49.93;100883.48;106242;1270;25371;-82
2022/06/05 08:24:13;;;;;;;6.40;3.30;;;;;;;19.63;50.25;100880.85;106152;1270;26643;-80
2022/06/05 08:26:40;;;;;;;4.80;3.10;;;;;;;19.82;49.78;100881.91;106274;1270;22566;-81
2022/06/05 08:29:06;;;;;;;3.20;3.00;;;;;;;19.95;48.82;100884.04;106490;1270;24219;-84
2022/06/05 08:31:33;;;;;;;6.00;2.70;;;;;;;20.09;48.58;100881.95;106240;1270;25506;-82
2022/06/05 08:34:01;;;;;;;3.10;2.80;;;;;;;20.23;48.12;100882.40;106469;1270;24245;-80
2022/06/05 08:36:28;;;;;;;2.90;2.70;;;;;;;20.36;47.76;100880.09;106652;1268;23315;-83
2022/06/05 08:42:04;;;;;;;4.20;3.40;;;;;;;20.57;47.27;100878.48;106441;1270;25250;-81
2022/06/05 08:44:41;;;;;;;3.40;3.10;;;;;;;20.73;47.10;100877.61;106278;1269;22561;-83
2022/06/05 08:47:25;;;;;;;3.70;3.00;;;;;;;20.80;46.34;100878.38;106250;1270;22868;-83
2022/06/05 08:50:09;;;;;;;5.30;3.10;;;;;;;20.78;45.84;100873.48;106297;1270;25257;-81
2022/06/05 08:52:51;;;;;;;3.70;2.70;;;;;;;20.89;46.28;100870.52;106743;1270;23421;-84
2022/06/05 08:55:37;;;;;;;3.80;3.00;;;;;;;20.99;45.75;100869.70;107000;1270;25250;-85
2022/06/05 08:58:46;;;;;;;6.00;3.20;;;;;;;21.08;45.29;100867.15;107130;1270;25111;-84
2022/06/05 09:01:21;;;;;;;3.80;2.80;;;;;;;21.24;44.93;100866.23;106829;1277;22559;-84
2022/06/05 09:03:53;;;;;;;2.60;2.30;;;;;;;21.40;45.12;100865.48;107408;1277;25370;-84
2022/06/05 09:06:32;;;;;;;3.10;2.50;;;;;;;21.55;44.52;100869.09;106976;1274;22820;-82
2022/06/05 09:09:05;;;;;;;2.80;2.60;;;;;;;21.71;44.02;100871.94;106354;1280;22564;-84
2022/06/05 09:11:55;;;;;;;3.90;2.90;;;;;;;21.81;43.25;100868.78;105189;1286;22855;-84
2022/06/05 09:14:36;;;;;;;2.70;2.30;;;;;;;21.96;43.12;100871.28;103831;1296;24313;-85
2022/06/05 09:17:09;;;;;;;5.30;3.00;;;;;;;22.09;43.23;100860.64;103738;1303;25263;-82
2022/06/05 09:19:39;;;;;;;5.30;3.10;;;;;;;22.25;43.04;100861.42;103709;1300;22598;-81
2022/06/05 09:22:31;;;;;;;2.80;2.60;;;;;;;22.40;42.93;100861.05;103767;1300;22771;-83
2022/06/05 09:25:13;;;;;;;2.80;2.60;;;;;;;22.51;42.41;100855.80;103588;1300;22851;-83
2022/06/05 09:27:58;;;;;;;2.70;2.50;;;;;;;22.62;42.29;100860.81;103774;1297;24304;-81
2022/06/05 09:30:49;;;;;;;3.20;2.50;;;;;;;22.77;42.06;100858.07;103865;1297;22586;-82
2022/06/05 09:33:36;;;;;;;3.50;2.60;;;;;;;22.90;41.73;100861.73;104101;1293;22889;-83
2022/06/05 09:36:09;;;;;;;3.00;2.70;;;;;;;22.99;40.98;100863.56;104837;1286;22555;-83
2022/06/05 09:38:37;;;;;;;3.20;2.40;;;;;;;23.12;40.61;100863.06;105674;1281;25384;-81
2022/06/05 09:41:34;;;;;;;3.40;2.60;;;;;;;23.25;40.29;100861.60;105721;1279;24233;-80
2022/06/05 09:44:26;;;;;;;3.50;2.60;;;;;;;23.32;39.94;100859.98;105684;1278;25322;-76
2022/06/05 09:47:01;;;;;;;2.80;2.50;;;;;;;23.44;40.04;100854.84;105671;1278;22615;-77
2022/06/05 09:49:32;;;;;;;2.90;2.40;;;;;;;23.57;39.61;100855.05;105654;1278;22902;-77
2022/06/05 09:52:20;;;;;;;3.90;2.60;;;;;;;23.58;39.38;100854.09;105761;1271;22542;-76
2022/06/05 09:55:08;;;;;;;3.40;2.70;;;;;;;23.62;38.99;100855.13;106279;1270;25313;-77
2022/06/05 10:00:51;;;;;;;3.30;2.50;;;;;;;23.69;38.85;100852.07;106343;1270;22985;-77
2022/06/05 10:03:22;;;;;;;2.70;2.40;;;;;;;23.77;38.59;100856.84;106421;1270;25369;-85
2022/06/05 10:06:17;;;;;;;2.50;2.20;;;;;;;23.80;38.29;100859.33;106389;1270;25490;-78
2022/06/05 10:09:05;;;;;;;4.00;2.80;;;;;;;23.81;38.09;100858.56;105984;1273;26732;-76
2022/06/05 10:12:10;;;;;;;7.50;2.50;;;;;;;23.94;37.87;100857.45;106086;1273;24257;-78
2022/06/05 10:14:57;;;;;;;2.40;2.20;;;;;;;24.09;37.26;100855.50;105612;1279;24203;-77
2022/06/05 10:17:50;;;;;;;2.40;2.00;;;;;;;24.20;36.95;100852.02;105670;1279;25380;-76
2022/06/05 10:20:22;;;;;;;4.50;2.50;;;;;;;24.36;36.82;100850.73;105602;1282;24558;-77
2022/06/05 10:23:03;;;;;;;3.90;2.50;;;;;;;24.59;37.31;100847.73;105764;1279;22573;-76
2022/06/05 10:25:36;;;;;;;3.20;2.70;;;;;;;24.73;36.74;100852.27;105671;1279;22690;-74
2022/06/05 10:28:11;;;;;;;3.90;2.20;;;;;;;24.82;36.47;100853.19;105304;1279;22675;-74
2022/06/05 10:30:55;;;;;;;2.60;2.00;;;;;;;25.02;36.36;100850.02;105430;1279;24311;-76
2022/06/05 10:33:39;;;;;;;2.60;2.40;;;;;;;25.16;35.50;100851.06;105504;1279;23941;-75
2022/06/05 10:36:32;;;;;;;5.90;2.10;;;;;;;25.27;34.95;100850.95;105620;1279;25295;-74
2022/06/05 10:39:18;;;;;;;2.20;1.90;;;;;;;25.44;34.80;100851.66;105059;1285;22590;-76
2022/06/05 10:42:02;;;;;;;2.50;2.30;;;;;;;25.63;34.94;100848.98;105110;1286;25672;-77
2022/06/05 10:44:34;;;;;;;2.40;2.20;;;;;;;25.83;34.35;100848.42;105134;1285;23970;-78
2022/06/05 10:47:34;;;;;;;3.60;2.00;;;;;;;25.96;34.01;100849.91;105853;1277;25280;-79
2022/06/05 10:50:31;;;;;;;2.30;2.00;;;;;;;26.00;33.83;100845.31;105794;1277;22560;-77
2022/06/05 10:53:19;;;;;;;2.20;2.00;;;;;;;26.19;33.73;100846.44;105977;1275;22547;-77
2022/06/05 10:56:06;;;;;;;2.80;2.00;;;;;;;26.38;33.55;100848.78;106071;1274;25495;-75
2022/06/05 10:58:39;;;;;;;3.20;1.90;;;;;;;26.53;32.98;100846.34;106045;1274;22697;-77
2022/06/05 11:01:23;;;;;;;3.20;2.20;;;;;;;26.71;32.93;100841.80;105809;1274;22560;-77
2022/06/05 11:03:52;;;;;;;3.50;2.20;;;;;;;26.76;31.74;100841.14;105822;1276;25253;-74
2022/06/05 11:06:30;;;;;;;2.20;2.00;;;;;;;26.70;31.62;100838.84;106001;1275;23920;-78
2022/06/05 11:09:16;;;;;;;1.90;1.80;;;;;;;26.67;31.24;100833.61;106093;1275;22545;-77
2022/06/05 11:15:00;;;;;;;2.10;2.00;;;;;;;27.02;31.83;100827.73;105568;1281;22580;-77
2022/06/05 11:17:34;;;;;;;3.80;1.90;;;;;;;27.24;31.95;100822.89;105858;1281;25290;-74
2022/06/05 11:20:15;;;;;;;2.20;2.00;;;;;;;27.42;31.69;100821.23;105564;1282;22609;-79
2022/06/05 11:23:06;;;;;;;2.40;2.00;;;;;;;27.59;31.80;100825.28;106014;1276;23022;-77
2022/06/05 11:25:41;;;;;;;2.00;1.70;;;;;;;27.83;31.42;100824.80;105820;1279;22754;-82
2022/06/05 11:28:29;;;;;;;2.50;2.30;;;;;;;27.97;30.73;100818.48;105647;1279;22784;-80
2022/06/05 11:31:30;;;;;;;2.40;2.20;;;;;;;28.02;30.26;100821.19;105947;1281;22569;-72
2022/06/05 11:34:23;;;;;;;2.00;1.80;;;;;;;28.02;29.51;100819.41;106215;1276;24262;-72
2022/06/05 11:36:52;;;;;;;1.90;1.70;;;;;;;27.89;29.24;100819.48;106084;1277;22709;-77
2022/06/05 11:39:34;;;;;;;2.20;1.90;;;;;;;27.89;29.71;100817.66;105439;1281;24289;-76
2022/06/05 11:42:26;;;;;;;1.80;1.70;;;;;;;28.05;29.26;100815.17;105251;1283;25324;-76
2022/06/05 11:45:27;;;;;;;2.00;1.90;;;;;;;28.22;29.12;100810.23;105766;1277;24269;-78
2022/06/05 11:48:34;;;;;;;2.00;1.70;;;;;;;28.43;29.00;100804.66;105722;1279;22599;-83
2022/06/05 11:51:30;;;;;;;2.00;1.90;;;;;;;28.68;28.59;100804.02;105193;1283;25946;-78
2022/06/05 11:54:04;;;;;;;2.10;1.90;;;;;;;28.85;27.81;100799.00;105394;1283;22561;-77
2022/06/05 11:57:05;;;;;;;1.70;1.60;;;;;;;28.39;27.29;100799.02;106250;1288;22585;-76
2022/06/05 11:59:39;;;;;;;1.70;1.60;;;;;;;28.35;28.60;100797.38;105160;1284;26567;-77
2022/06/05 12:02:08;;;;;;;2.00;1.90;;;;;;;28.52;28.64;100794.77;105619;1281;26512;-76
2022/06/05 12:05:00;;;;;;;2.00;1.90;;;;;;;28.67;28.63;100789.08;105594;1281;24239;-77
2022/06/05 12:07:28;;;;;;;2.60;2.40;;;;;;;28.77;28.12;100783.55;105313;1281;24271;-78
2022/06/05 12:10:06;;;;;;;2.00;1.80;;;;;;;28.85;27.89;100784.15;105580;1281;24239;-77
2022/06/05 12:12:41;;;;;;;2.10;1.80;;;;;;;29.03;27.81;100781.31;105776;1279;26055;-77